Time;durP1;ratioP1;P1;durP2;ratioP2;P2;SDS_P1;SDS_P2;PMS_P1;PMS_P2;Temp;Humidity;BMP_temperature;BMP_pressure;BME280_temperature;BME280_humidity;BME280_pressure;Samples;Min_cycle;Max_cycle;Signal;HPM_P1;HPM_P2
2023/06/18 00:00:57;;;;;;;4.13;3.92;;;23.00;79.80;;;;;;5017096;28;20033;-75
2023/06/18 00:03:24;;;;;;;4.30;4.10;;;23.00;79.80;;;;;;4999559;28;20534;-75
2023/06/18 00:05:51;;;;;;;4.28;4.07;;;23.10;79.80;;;;;;5004209;28;20081;-75
2023/06/18 00:08:16;;;;;;;4.00;3.80;;;23.00;79.70;;;;;;4982570;28;20049;-76
2023/06/18 00:10:42;;;;;;;3.88;3.67;;;23.00;79.60;;;;;;4999493;28;20043;-75
2023/06/18 00:13:07;;;;;;;3.45;3.25;;;23.10;79.60;;;;;;5002266;28;20041;-75
2023/06/18 00:15:33;;;;;;;3.88;3.67;;;23.00;79.50;;;;;;4998823;28;20050;-75
2023/06/18 00:17:59;;;;;;;3.75;3.55;;;23.00;79.40;;;;;;5003101;28;20135;-76
2023/06/18 00:20:24;;;;;;;3.70;3.50;;;23.00;79.40;;;;;;4999347;28;20038;-75
2023/06/18 00:22:52;;;;;;;4.40;4.20;;;23.10;79.30;;;;;;4995087;28;20066;-75
2023/06/18 00:25:18;;;;;;;3.97;3.78;;;23.00;80.00;;;;;;5009061;28;20038;-76
2023/06/18 00:27:44;;;;;;;4.03;3.83;;;23.00;79.20;;;;;;5002680;28;20511;-75
2023/06/18 00:30:10;;;;;;;3.88;3.67;;;23.00;79.00;;;;;;5006343;28;20769;-75
2023/06/18 00:32:35;;;;;;;3.90;3.70;;;23.00;79.00;;;;;;5003663;28;20045;-75
2023/06/18 00:35:01;;;;;;;3.75;3.55;;;23.00;79.00;;;;;;4983656;28;20038;-75
2023/06/18 00:37:27;;;;;;;4.15;3.95;;;23.00;79.00;;;;;;4987973;28;20042;-75
2023/06/18 00:39:54;;;;;;;4.43;4.13;;;23.00;79.70;;;;;;5006536;28;20049;-75
2023/06/18 00:42:20;;;;;;;3.45;3.28;;;23.00;78.90;;;;;;5018575;28;20073;-76
2023/06/18 00:44:46;;;;;;;3.88;3.67;;;23.00;78.80;;;;;;5022258;28;20125;-75
2023/06/18 00:47:12;;;;;;;3.70;3.50;;;23.00;78.80;;;;;;5006165;28;20068;-75
2023/06/18 00:49:44;;;;;;;4.10;3.90;;;23.00;78.60;;;;;;5003470;28;20285;-75
2023/06/18 00:52:12;;;;;;;4.20;4.00;;;23.00;78.80;;;;;;5002078;28;20050;-75
2023/06/18 00:54:39;;;;;;;3.92;3.72;;;23.00;78.80;;;;;;5016068;28;20133;-75
2023/06/18 00:57:08;;;;;;;4.13;3.92;;;23.00;78.70;;;;;;5004111;28;20192;-75
2023/06/18 00:59:34;;;;;;;4.13;3.92;;;23.00;78.70;;;;;;5005224;28;20140;-75
2023/06/18 01:02:00;;;;;;;4.68;4.38;;;23.00;78.70;;;;;;4986808;28;20049;-75
2023/06/18 01:04:32;;;;;;;3.80;3.50;;;23.00;78.70;;;;;;4999836;28;20044;-75
2023/06/18 01:06:57;;;;;;;3.60;3.40;;;23.00;79.50;;;;;;4985439;28;20769;-75
2023/06/18 01:09:24;;;;;;;3.85;3.58;;;23.00;78.70;;;;;;4986924;28;20964;-75
2023/06/18 01:11:53;;;;;;;3.90;3.70;;;23.00;78.60;;;;;;5008847;28;20062;-75
2023/06/18 01:14:22;;;;;;;4.13;3.92;;;23.00;78.50;;;;;;5003617;28;20089;-75
2023/06/18 01:16:49;;;;;;;3.80;3.60;;;23.00;78.40;;;;;;4973388;28;20128;-75
2023/06/18 01:19:57;;;;;;;3.40;3.20;;;23.00;78.50;;;;;;5002022;28;20408;-74
2023/06/18 01:22:33;;;;;;;3.13;3.03;;;23.00;78.40;;;;;;4999560;28;20046;-75
2023/06/18 01:25:02;;;;;;;3.85;3.65;;;23.00;78.20;;;;;;5005680;28;20048;-75
2023/06/18 01:27:28;;;;;;;3.83;3.63;;;23.10;78.20;;;;;;5001873;28;20066;-75
2023/06/18 01:29:54;;;;;;;3.53;3.33;;;23.00;78.10;;;;;;5005304;28;20050;-75
2023/06/18 01:32:21;;;;;;;3.33;3.13;;;23.00;78.00;;;;;;5017508;28;20096;-76
2023/06/18 01:34:47;;;;;;;3.45;3.30;;;23.00;77.80;;;;;;5001648;28;20052;-75
2023/06/18 01:37:28;;;;;;;3.70;3.50;;;23.00;77.90;;;;;;5004385;28;20034;-75
2023/06/18 01:40:18;;;;;;;3.15;3.00;;;23.10;77.80;;;;;;4997102;28;20488;-75
2023/06/18 01:42:55;;;;;;;3.95;3.75;;;23.00;77.80;;;;;;5002898;28;20074;-75
2023/06/18 01:45:25;;;;;;;3.70;3.50;;;23.10;77.90;;;;;;5017537;28;20058;-75
2023/06/18 01:47:51;;;;;;;3.35;3.15;;;23.10;78.00;;;;;;5020972;28;20080;-76
2023/06/18 01:50:16;;;;;;;3.80;3.50;;;23.10;78.00;;;;;;5002313;28;20176;-75
2023/06/18 01:52:43;;;;;;;3.20;3.08;;;23.10;78.00;;;;;;5003638;28;20244;-75
2023/06/18 01:55:10;;;;;;;3.28;3.10;;;23.10;78.00;;;;;;5004731;28;20454;-75
2023/06/18 01:57:35;;;;;;;3.40;3.30;;;23.10;77.90;;;;;;5020619;28;20133;-75
2023/06/18 02:00:01;;;;;;;3.50;3.30;;;23.10;78.10;;;;;;5004030;28;20128;-75
2023/06/18 02:02:27;;;;;;;3.90;3.70;;;23.10;78.00;;;;;;5002644;28;20116;-75
2023/06/18 02:04:52;;;;;;;3.65;3.45;;;23.10;77.90;;;;;;4988290;28;20089;-75
2023/06/18 02:07:18;;;;;;;4.10;3.90;;;23.10;78.20;;;;;;5003196;28;20057;-74
2023/06/18 02:09:44;;;;;;;3.15;3.05;;;23.10;77.90;;;;;;5001299;28;20479;-75
2023/06/18 02:12:10;;;;;;;3.20;3.10;;;23.10;78.00;;;;;;5005435;28;20050;-75
2023/06/18 02:14:35;;;;;;;3.20;3.10;;;23.10;77.80;;;;;;4990004;28;20038;-75
2023/06/18 02:17:02;;;;;;;3.45;3.35;;;23.10;77.90;;;;;;5001764;28;20038;-75
2023/06/18 02:19:27;;;;;;;3.30;3.10;;;23.10;78.10;;;;;;5004813;28;20057;-75
2023/06/18 02:21:53;;;;;;;3.13;2.97;;;23.10;77.90;;;;;;5000797;28;20439;-75
2023/06/18 02:24:19;;;;;;;3.83;3.63;;;23.10;77.80;;;;;;5001435;28;20038;-75
2023/06/18 02:26:45;;;;;;;3.47;3.38;;;23.10;78.10;;;;;;5004561;28;20069;-75
2023/06/18 02:29:10;;;;;;;3.33;3.13;;;23.10;77.80;;;;;;5003737;28;20046;-75
2023/06/18 02:31:36;;;;;;;3.40;3.20;;;23.10;78.20;;;;;;5001912;28;20033;-75
2023/06/18 02:34:02;;;;;;;3.85;3.63;;;23.00;77.90;;;;;;4982370;28;20534;-75
2023/06/18 02:36:28;;;;;;;3.40;3.30;;;23.10;78.00;;;;;;5000330;28;20038;-75
2023/06/18 02:38:55;;;;;;;3.40;3.20;;;23.10;78.00;;;;;;5002223;28;20129;-75
2023/06/18 02:41:21;;;;;;;3.20;3.00;;;23.10;77.90;;;;;;5004062;28;20093;-76
2023/06/18 02:43:49;;;;;;;3.08;2.95;;;23.10;78.00;;;;;;5004789;28;20084;-75
2023/06/18 02:46:16;;;;;;;3.20;3.00;;;23.10;77.90;;;;;;5004414;28;20042;-75
2023/06/18 02:48:41;;;;;;;2.78;2.67;;;23.10;78.30;;;;;;5003092;28;20143;-75
2023/06/18 02:51:07;;;;;;;3.40;3.22;;;23.10;78.10;;;;;;4987066;28;20045;-75
2023/06/18 02:53:32;;;;;;;3.00;2.90;;;23.10;77.90;;;;;;4996785;28;20538;-75
2023/06/18 02:55:58;;;;;;;2.85;2.75;;;23.10;77.80;;;;;;5004777;28;20037;-75
2023/06/18 02:58:27;;;;;;;3.30;3.10;;;23.10;77.90;;;;;;4997798;28;20057;-75
2023/06/18 03:01:02;;;;;;;2.80;2.70;;;23.10;77.80;;;;;;5003091;28;20042;-75
2023/06/18 03:03:28;;;;;;;2.78;2.67;;;23.10;77.80;;;;;;5000710;28;20149;-76
2023/06/18 03:05:54;;;;;;;3.25;3.05;;;23.10;77.80;;;;;;5006046;28;20128;-75
2023/06/18 03:08:19;;;;;;;2.72;2.63;;;23.10;77.80;;;;;;4989983;28;20054;-75
2023/06/18 03:10:45;;;;;;;3.28;3.00;;;23.10;77.80;;;;;;5003801;28;20045;-75
2023/06/18 03:13:10;;;;;;;3.20;3.00;;;23.10;78.10;;;;;;5001191;28;20684;-75
2023/06/18 03:15:36;;;;;;;3.05;2.95;;;23.10;78.00;;;;;;5001895;28;20030;-75
2023/06/18 03:18:02;;;;;;;3.55;3.35;;;23.10;78.50;;;;;;5003742;28;20534;-75
2023/06/18 03:20:27;;;;;;;3.40;3.20;;;23.10;79.20;;;;;;5002946;28;20045;-76
2023/06/18 03:22:53;;;;;;;2.55;2.45;;;23.10;79.40;;;;;;4986910;28;20042;-75
2023/06/18 03:25:19;;;;;;;3.10;3.00;;;23.10;79.50;;;;;;5002857;28;20052;-75
2023/06/18 03:27:46;;;;;;;2.70;2.60;;;23.20;79.50;;;;;;4987290;28;21500;-74
2023/06/18 03:30:12;;;;;;;2.80;2.70;;;23.10;79.20;;;;;;5016941;28;20038;-75
2023/06/18 03:32:37;;;;;;;2.58;2.47;;;23.10;79.20;;;;;;5011262;28;20133;-75
2023/06/18 03:35:04;;;;;;;2.70;2.60;;;23.10;79.30;;;;;;5002180;28;20130;-75
2023/06/18 03:37:30;;;;;;;2.53;2.40;;;23.10;78.90;;;;;;5001199;28;20037;-76
2023/06/18 03:39:56;;;;;;;2.60;2.50;;;23.10;78.70;;;;;;5003856;28;20092;-75
2023/06/18 03:42:22;;;;;;;2.70;2.50;;;23.10;78.50;;;;;;5002977;28;20100;-76
2023/06/18 03:44:47;;;;;;;2.60;2.50;;;23.10;78.40;;;;;;5002499;28;20049;-75
2023/06/18 03:47:13;;;;;;;2.75;2.65;;;23.10;79.40;;;;;;5004422;28;20459;-75
2023/06/18 03:49:38;;;;;;;2.90;2.80;;;23.10;78.60;;;;;;4999331;28;20043;-75
2023/06/18 03:52:04;;;;;;;2.80;2.70;;;23.20;78.60;;;;;;5000741;28;20042;-75
2023/06/18 03:54:31;;;;;;;2.85;2.75;;;23.10;78.30;;;;;;5002559;28;20125;-75
2023/06/18 03:56:57;;;;;;;2.83;2.63;;;23.20;78.50;;;;;;5005453;28;20048;-75
2023/06/18 03:59:23;;;;;;;3.13;3.03;;;23.10;78.40;;;;;;5002252;28;20124;-75
2023/06/18 04:01:49;;;;;;;2.95;2.85;;;23.10;78.20;;;;;;5017701;28;20129;-75
2023/06/18 04:04:15;;;;;;;2.58;2.47;;;23.10;78.10;;;;;;5004557;28;20050;-75
2023/06/18 04:06:40;;;;;;;3.17;2.92;;;23.20;78.60;;;;;;5021835;28;20065;-75
2023/06/18 04:09:06;;;;;;;3.22;3.13;;;23.20;78.20;;;;;;5008431;28;20042;-75
2023/06/18 04:11:31;;;;;;;3.00;2.90;;;23.20;77.90;;;;;;4990968;28;20050;-75
2023/06/18 04:13:57;;;;;;;2.70;2.53;;;23.10;78.20;;;;;;5006256;28;20050;-75
2023/06/18 04:16:22;;;;;;;2.67;2.58;;;23.10;78.10;;;;;;5003266;28;20578;-75
2023/06/18 04:18:48;;;;;;;3.03;2.83;;;23.10;77.80;;;;;;5001983;28;20451;-75
2023/06/18 04:21:13;;;;;;;3.50;3.30;;;23.10;76.80;;;;;;5016345;28;20045;-75
2023/06/18 04:23:41;;;;;;;3.00;2.90;;;23.00;77.40;;;;;;5006347;28;20048;-75
2023/06/18 04:26:06;;;;;;;3.08;2.97;;;23.00;77.50;;;;;;5021254;28;20403;-75
2023/06/18 04:28:32;;;;;;;3.20;3.10;;;23.00;77.60;;;;;;4990039;28;20038;-75
2023/06/18 04:30:57;;;;;;;3.03;2.92;;;23.00;77.90;;;;;;5004977;28;20591;-75
2023/06/18 04:33:23;;;;;;;2.88;2.78;;;23.00;77.80;;;;;;4989433;28;20038;-75
2023/06/18 04:35:48;;;;;;;3.17;2.97;;;23.10;77.80;;;;;;4987373;28;20061;-75
2023/06/18 04:38:14;;;;;;;2.50;2.40;;;23.10;77.60;;;;;;5018330;28;20458;-75
2023/06/18 04:40:40;;;;;;;7.15;3.08;;;23.10;77.70;;;;;;4999221;28;20136;-75
2023/06/18 04:43:05;;;;;;;2.38;2.22;;;23.10;77.30;;;;;;5004530;28;20030;-75
2023/06/18 04:45:31;;;;;;;2.53;2.42;;;23.10;77.60;;;;;;5004360;28;20051;-75
2023/06/18 04:47:56;;;;;;;2.63;2.53;;;23.10;77.60;;;;;;5007364;28;20046;-75
2023/06/18 04:50:22;;;;;;;2.47;2.38;;;23.10;77.40;;;;;;5004264;28;20047;-74
2023/06/18 04:52:48;;;;;;;2.90;2.80;;;23.10;77.50;;;;;;5007785;28;20109;-75
2023/06/18 04:55:13;;;;;;;3.03;2.50;;;23.10;77.60;;;;;;5007604;28;20412;-75
2023/06/18 04:57:40;;;;;;;3.00;2.80;;;23.10;77.10;;;;;;5005905;28;20115;-74
2023/06/18 05:00:06;;;;;;;2.83;2.58;;;23.10;77.10;;;;;;5006653;28;20053;-75
2023/06/18 05:02:32;;;;;;;2.50;2.40;;;23.10;77.20;;;;;;5005272;28;20042;-76
2023/06/18 05:04:58;;;;;;;2.42;2.33;;;23.10;77.00;;;;;;5005684;28;20108;-75
2023/06/18 05:07:24;;;;;;;2.58;2.47;;;23.10;77.00;;;;;;5003791;28;20034;-75
2023/06/18 05:09:49;;;;;;;2.33;2.22;;;23.10;77.90;;;;;;5006981;28;20049;-75
2023/06/18 05:12:15;;;;;;;2.63;2.53;;;23.10;77.20;;;;;;5005390;28;20515;-74
2023/06/18 05:14:40;;;;;;;2.30;2.20;;;23.10;76.90;;;;;;5006700;28;20041;-75
2023/06/18 05:17:06;;;;;;;2.40;2.30;;;23.10;77.20;;;;;;5007913;28;20083;-75
2023/06/18 05:19:32;;;;;;;2.58;2.47;;;23.10;77.20;;;;;;4989894;28;20037;-75
2023/06/18 05:21:58;;;;;;;2.50;2.30;;;23.10;77.00;;;;;;4999573;28;20045;-75
2023/06/18 05:24:23;;;;;;;2.30;2.20;;;23.10;77.10;;;;;;5001547;28;20403;-75
2023/06/18 05:26:49;;;;;;;2.30;2.20;;;23.10;77.10;;;;;;5007044;28;20030;-75
2023/06/18 05:29:16;;;;;;;2.40;2.30;;;23.10;76.80;;;;;;4990199;28;20057;-74
2023/06/18 05:31:41;;;;;;;2.00;1.90;;;23.10;77.00;;;;;;4985966;28;20046;-75
2023/06/18 05:34:07;;;;;;;2.40;2.30;;;23.10;77.10;;;;;;5000608;28;20061;-75
2023/06/18 05:36:32;;;;;;;2.40;2.30;;;23.10;76.90;;;;;;4986660;28;20889;-75
2023/06/18 05:38:59;;;;;;;2.30;2.20;;;23.10;77.00;;;;;;5004662;28;20065;-75
2023/06/18 05:41:26;;;;;;;2.20;2.10;;;23.10;76.90;;;;;;4989111;28;20061;-75
2023/06/18 05:43:52;;;;;;;2.65;2.55;;;23.10;76.80;;;;;;4971359;28;20045;-75
2023/06/18 05:46:17;;;;;;;2.28;2.17;;;23.10;77.00;;;;;;5002798;28;20044;-75
2023/06/18 05:48:43;;;;;;;4.18;3.90;;;23.10;76.90;;;;;;5002071;28;20069;-74
2023/06/18 05:51:08;;;;;;;4.53;4.18;;;22.70;75.40;;;;;;4998267;28;20100;-74
2023/06/18 05:53:34;;;;;;;5.40;4.40;;;22.20;76.00;;;;;;5001395;28;20053;-74
2023/06/18 05:55:59;;;;;;;4.88;4.47;;;22.00;76.70;;;;;;5005665;28;20128;-74
2023/06/18 05:58:25;;;;;;;4.20;3.92;;;21.90;77.60;;;;;;5001836;28;20652;-73
2023/06/18 06:00:51;;;;;;;4.75;4.40;;;21.80;78.40;;;;;;5000246;28;20044;-73
2023/06/18 06:03:17;;;;;;;5.10;4.78;;;21.70;79.00;;;;;;5000136;28;20053;-73
2023/06/18 06:05:42;;;;;;;4.25;3.90;;;21.60;79.10;;;;;;5016404;28;20046;-73
2023/06/18 06:08:08;;;;;;;4.38;4.07;;;21.50;79.70;;;;;;5004158;28;20037;-73
2023/06/18 06:10:34;;;;;;;4.68;4.28;;;21.50;79.80;;;;;;4970425;28;20073;-73
2023/06/18 06:13:00;;;;;;;4.53;4.32;;;21.40;80.60;;;;;;5003442;28;20065;-73
2023/06/18 06:15:25;;;;;;;4.97;4.57;;;21.20;82.60;;;;;;5002850;28;20136;-73
2023/06/18 06:17:51;;;;;;;4.93;4.63;;;21.10;82.80;;;;;;5004832;28;20084;-73
2023/06/18 06:20:17;;;;;;;4.07;3.88;;;21.20;82.50;;;;;;5004132;28;20042;-73
2023/06/18 06:22:42;;;;;;;4.97;4.78;;;21.20;82.40;;;;;;5000965;28;20046;-74
2023/06/18 06:25:08;;;;;;;6.95;5.55;;;21.30;82.10;;;;;;5003796;28;20037;-73
2023/06/18 06:27:34;;;;;;;5.10;4.70;;;21.30;81.30;;;;;;5003692;28;20049;-72
2023/06/18 06:30:01;;;;;;;5.40;5.00;;;21.20;82.00;;;;;;5004233;28;20046;-73
2023/06/18 06:32:27;;;;;;;5.28;5.05;;;21.20;82.10;;;;;;5001378;28;20042;-73
2023/06/18 06:34:53;;;;;;;5.85;5.25;;;21.10;82.80;;;;;;4998674;28;20044;-73
2023/06/18 06:37:18;;;;;;;5.28;4.97;;;21.00;84.00;;;;;;5001743;28;20037;-73
2023/06/18 06:39:44;;;;;;;5.90;5.43;;;20.90;83.90;;;;;;4998414;28;20070;-73
2023/06/18 06:42:10;;;;;;;5.70;5.30;;;20.70;84.80;;;;;;5004409;28;20050;-73
2023/06/18 06:44:36;;;;;;;5.60;5.13;;;20.70;84.90;;;;;;5003272;28;20053;-73
2023/06/18 06:47:02;;;;;;;5.13;4.65;;;20.80;84.10;;;;;;5003222;28;20045;-73
2023/06/18 06:49:27;;;;;;;5.00;4.60;;;20.70;84.00;;;;;;5003949;28;20108;-73
2023/06/18 06:51:55;;;;;;;4.90;4.53;;;20.60;84.80;;;;;;4999301;28;20042;-73
2023/06/18 06:54:20;;;;;;;5.20;4.82;;;20.50;85.70;;;;;;5014939;28;20041;-73
2023/06/18 06:56:46;;;;;;;5.28;4.95;;;20.60;85.40;;;;;;5004926;28;20041;-74
2023/06/18 06:59:12;;;;;;;6.32;5.75;;;20.60;85.20;;;;;;5001273;28;20046;-73
2023/06/18 07:01:39;;;;;;;6.75;6.15;;;20.60;85.00;;;;;;5004424;28;20530;-72
2023/06/18 07:04:05;;;;;;;6.20;5.70;;;20.50;85.70;;;;;;5002717;28;20056;-73
2023/06/18 07:06:30;;;;;;;6.13;5.60;;;20.60;85.80;;;;;;5000758;28;20038;-73
2023/06/18 07:08:57;;;;;;;6.60;6.00;;;20.80;85.30;;;;;;5004858;28;20400;-73
2023/06/18 07:11:23;;;;;;;6.18;5.72;;;20.60;86.20;;;;;;5001512;28;20049;-73
2023/06/18 07:13:48;;;;;;;6.10;5.70;;;20.60;85.50;;;;;;5001504;28;20046;-72
2023/06/18 07:16:14;;;;;;;5.60;5.30;;;20.60;85.70;;;;;;4996766;28;20050;-72
2023/06/18 07:18:39;;;;;;;6.00;5.53;;;20.70;85.40;;;;;;4999412;28;20066;-73
2023/06/18 07:21:05;;;;;;;7.03;5.75;;;20.50;85.90;;;;;;4997824;28;20053;-72
2023/06/18 07:23:31;;;;;;;5.97;5.53;;;20.50;86.40;;;;;;5001656;28;20141;-72
2023/06/18 07:25:56;;;;;;;6.32;6.00;;;20.50;86.60;;;;;;4654048;28;9999941;-72
2023/06/18 07:28:22;;;;;;;5.75;5.13;;;20.50;86.40;;;;;;5007424;28;20065;-72
2023/06/18 07:30:47;;;;;;;5.57;5.18;;;20.40;86.60;;;;;;5017390;28;20049;-72
2023/06/18 07:33:13;;;;;;;5.10;4.78;;;20.20;87.40;;;;;;4997267;28;20033;-73
2023/06/18 07:35:38;;;;;;;6.85;6.35;;;20.10;88.00;;;;;;5006401;28;20057;-72
2023/06/18 07:38:04;;;;;;;5.18;4.88;;;20.30;87.60;;;;;;5006707;28;20034;-72
2023/06/18 07:40:33;;;;;;;6.05;5.53;;;20.40;86.50;;;;;;5013131;28;20134;-73
2023/06/18 07:42:59;;;;;;;5.43;5.05;;;20.20;87.40;;;;;;5008323;28;20506;-72
2023/06/18 07:45:25;;;;;;;5.97;5.68;;;20.30;87.10;;;;;;5010393;28;20097;-72
2023/06/18 07:47:51;;;;;;;7.60;5.82;;;20.30;87.90;;;;;;5012643;28;20049;-73
2023/06/18 07:50:16;;;;;;;6.20;5.70;;;20.20;88.40;;;;;;5001777;28;20504;-72
2023/06/18 07:52:42;;;;;;;6.40;5.97;;;20.30;87.20;;;;;;5009239;28;20038;-72
2023/06/18 07:55:08;;;;;;;6.50;6.00;;;20.40;87.20;;;;;;5006642;28;20385;-72
2023/06/18 07:57:34;;;;;;;6.18;5.68;;;20.20;89.30;;;;;;5006931;28;20030;-73
2023/06/18 07:59:59;;;;;;;6.38;5.65;;;20.20;88.00;;;;;;5011961;28;20037;-73
2023/06/18 08:02:25;;;;;;;5.38;5.07;;;20.10;88.90;;;;;;5011613;28;20042;-73
2023/06/18 08:04:50;;;;;;;4.85;4.55;;;20.00;89.10;;;;;;5008084;28;20026;-72
2023/06/18 08:07:16;;;;;;;5.07;4.78;;;20.00;89.00;;;;;;5010549;28;20091;-72
2023/06/18 08:09:41;;;;;;;4.70;4.50;;;19.90;89.60;;;;;;5012658;28;20034;-72
2023/06/18 08:12:07;;;;;;;5.00;4.70;;;20.10;89.20;;;;;;5010371;28;20415;-72
2023/06/18 08:14:33;;;;;;;4.90;4.60;;;20.00;88.20;;;;;;5029426;28;20088;-73
2023/06/18 08:16:58;;;;;;;6.10;5.60;;;20.10;88.50;;;;;;5016575;28;20061;-72
2023/06/18 08:19:24;;;;;;;5.50;5.10;;;20.10;87.70;;;;;;5011849;28;20038;-72
2023/06/18 08:21:49;;;;;;;5.47;5.07;;;20.10;88.40;;;;;;5009003;28;20044;-74
2023/06/18 08:24:15;;;;;;;5.35;4.95;;;20.20;87.50;;;;;;5008421;28;20026;-72
2023/06/18 08:26:42;;;;;;;4.32;4.03;;;20.10;87.80;;;;;;5007272;28;20570;-73
2023/06/18 08:29:07;;;;;;;6.15;4.93;;;20.00;88.10;;;;;;5004362;28;20030;-75
2023/06/18 08:31:33;;;;;;;4.15;3.92;;;19.90;88.10;;;;;;5005984;28;20426;-75
2023/06/18 08:33:58;;;;;;;3.70;3.40;;;20.10;87.60;;;;;;5014375;28;20040;-74
2023/06/18 08:36:24;;;;;;;3.65;3.35;;;20.30;86.70;;;;;;5012008;28;20050;-75
2023/06/18 08:38:49;;;;;;;4.90;3.17;;;20.50;85.80;;;;;;5010788;28;20042;-75
2023/06/18 08:41:15;;;;;;;3.65;3.45;;;20.90;84.40;;;;;;5007885;28;20053;-75
2023/06/18 08:43:41;;;;;;;3.13;2.88;;;20.90;84.10;;;;;;5007841;28;20046;-75
2023/06/18 08:46:10;;;;;;;3.30;3.00;;;20.90;83.80;;;;;;5011561;28;20041;-75
2023/06/18 08:48:45;;;;;;;3.30;3.10;;;21.00;83.60;;;;;;5003234;28;20052;-75
2023/06/18 08:51:14;;;;;;;3.00;2.70;;;21.10;83.30;;;;;;5004770;28;20042;-75
2023/06/18 08:54:09;;;;;;;2.92;2.72;;;21.10;83.00;;;;;;5003534;28;20058;-74
2023/06/18 08:56:42;;;;;;;3.20;2.90;;;21.10;82.70;;;;;;4997268;28;20046;-74
2023/06/18 08:59:08;;;;;;;2.67;2.58;;;21.20;82.70;;;;;;5002895;28;20065;-74
2023/06/18 09:01:34;;;;;;;4.25;2.45;;;21.20;82.50;;;;;;5000746;28;20515;-75
2023/06/18 09:04:00;;;;;;;2.70;2.55;;;21.30;82.50;;;;;;4998565;28;20076;-74
2023/06/18 09:06:25;;;;;;;2.80;2.70;;;21.30;82.40;;;;;;5006263;28;20046;-75
2023/06/18 09:08:51;;;;;;;3.00;2.80;;;21.30;82.20;;;;;;5009691;28;20057;-75
2023/06/18 09:11:16;;;;;;;3.30;3.10;;;21.40;82.00;;;;;;5004747;28;20515;-74
2023/06/18 09:13:42;;;;;;;2.88;2.78;;;21.40;82.00;;;;;;5002678;28;20077;-75
2023/06/18 09:16:08;;;;;;;2.55;2.45;;;21.40;81.90;;;;;;5004030;28;20053;-75
2023/06/18 09:18:34;;;;;;;2.85;2.25;;;21.50;82.00;;;;;;5020496;28;20049;-75
2023/06/18 09:21:00;;;;;;;2.90;2.70;;;21.50;81.80;;;;;;5004456;28;20153;-75
2023/06/18 09:23:25;;;;;;;2.33;2.22;;;21.50;82.30;;;;;;4987716;28;20044;-75
2023/06/18 09:25:55;;;;;;;2.30;2.15;;;21.50;82.10;;;;;;5002943;28;20530;-75
2023/06/18 09:28:20;;;;;;;2.45;2.25;;;21.60;82.10;;;;;;4986737;28;20072;-74
2023/06/18 09:30:50;;;;;;;2.50;2.40;;;21.60;82.00;;;;;;5001884;28;20050;-75
2023/06/18 09:33:18;;;;;;;2.35;2.25;;;21.60;82.30;;;;;;5017863;28;20120;-74
2023/06/18 09:35:44;;;;;;;3.05;2.95;;;21.60;82.30;;;;;;5018889;28;20033;-74
2023/06/18 09:38:09;;;;;;;2.13;2.03;;;21.60;82.30;;;;;;5017191;28;20069;-74
2023/06/18 09:40:35;;;;;;;2.47;2.38;;;21.70;83.10;;;;;;4999471;28;20056;-74
2023/06/18 09:43:00;;;;;;;2.65;2.45;;;21.70;82.30;;;;;;4999743;28;20050;-75
2023/06/18 09:45:26;;;;;;;2.55;2.45;;;21.70;82.30;;;;;;5000664;28;20082;-75
2023/06/18 09:47:52;;;;;;;2.83;2.63;;;21.70;82.30;;;;;;5006098;28;20508;-75
2023/06/18 09:50:18;;;;;;;2.40;2.30;;;21.70;82.30;;;;;;4986155;28;20086;-74
2023/06/18 09:52:44;;;;;;;2.38;2.17;;;21.70;82.30;;;;;;5000364;28;20109;-75
2023/06/18 09:55:31;;;;;;;2.05;1.95;;;21.70;82.30;;;;;;5004173;28;20049;-75
2023/06/18 09:57:58;;;;;;;2.45;2.30;;;21.70;82.30;;;;;;5002687;28;20049;-75
2023/06/18 10:00:24;;;;;;;2.20;2.10;;;21.70;82.30;;;;;;5004430;28;20049;-75
2023/06/18 10:02:50;;;;;;;2.22;2.13;;;21.70;82.40;;;;;;4998449;28;20068;-75
2023/06/18 10:05:16;;;;;;;2.30;2.20;;;21.80;82.50;;;;;;5003533;28;20041;-75
2023/06/18 10:07:41;;;;;;;2.97;2.78;;;21.80;82.80;;;;;;4998897;28;20038;-74
2023/06/18 10:10:13;;;;;;;2.80;2.60;;;21.80;82.60;;;;;;4988286;28;20042;-75
2023/06/18 10:12:40;;;;;;;2.30;2.20;;;21.80;82.60;;;;;;4984333;28;20046;-74
2023/06/18 10:15:06;;;;;;;2.30;2.20;;;21.90;82.40;;;;;;5020989;28;20687;-74
2023/06/18 10:17:34;;;;;;;2.25;2.15;;;21.80;82.40;;;;;;5015882;28;20054;-75
2023/06/18 10:20:03;;;;;;;2.00;1.90;;;21.90;82.90;;;;;;5004549;28;20030;-74
2023/06/18 10:22:31;;;;;;;2.10;2.00;;;21.90;83.00;;;;;;5002042;28;20074;-73
2023/06/18 10:25:06;;;;;;;2.60;2.50;;;21.80;82.80;;;;;;5001048;28;20049;-73
2023/06/18 10:27:32;;;;;;;2.28;2.17;;;21.90;83.00;;;;;;5003284;28;20577;-75
2023/06/18 10:29:58;;;;;;;2.30;2.20;;;21.90;83.10;;;;;;4987952;28;20033;-74
2023/06/18 10:32:24;;;;;;;2.42;2.15;;;21.90;83.20;;;;;;5001236;28;20046;-74
2023/06/18 10:34:51;;;;;;;3.08;2.40;;;21.90;82.90;;;;;;5000477;28;20137;-74
2023/06/18 10:37:16;;;;;;;2.40;2.30;;;22.00;83.20;;;;;;4999924;28;20054;-74
2023/06/18 10:39:42;;;;;;;2.63;2.30;;;22.00;83.30;;;;;;5020489;28;20030;-73
2023/06/18 10:42:15;;;;;;;2.38;2.28;;;22.00;83.60;;;;;;5003249;28;20042;-73
2023/06/18 10:44:57;;;;;;;3.27;2.40;;;22.10;83.60;;;;;;5004644;28;20050;-73
2023/06/18 10:47:24;;;;;;;2.33;2.22;;;22.10;83.90;;;;;;5001647;28;20269;-73
2023/06/18 10:50:09;;;;;;;2.37;2.23;;;22.10;83.60;;;;;;4656063;28;10000931;-73
2023/06/18 10:52:53;;;;;;;2.10;2.00;;;22.10;83.80;;;;;;4995432;28;20527;-75
2023/06/18 10:55:21;;;;;;;2.75;2.25;;;22.10;84.00;;;;;;4997842;28;20046;-75
2023/06/18 10:57:48;;;;;;;2.30;2.20;;;22.20;84.00;;;;;;4997337;28;20072;-75
2023/06/18 11:00:24;;;;;;;2.50;2.30;;;22.20;84.00;;;;;;4999852;28;20050;-75
2023/06/18 11:02:57;;;;;;;2.85;2.65;;;22.20;84.20;;;;;;5002405;28;20120;-75
2023/06/18 11:05:31;;;;;;;2.40;2.30;;;22.20;84.10;;;;;;5007105;28;20073;-75
2023/06/18 11:08:07;;;;;;;2.92;2.28;;;22.20;84.30;;;;;;4995367;28;20038;-75
2023/06/18 11:11:03;;;;;;;2.63;2.50;;;22.20;84.00;;;;;;4993761;28;20045;-75
2023/06/18 11:13:35;;;;;;;2.45;2.35;;;22.20;84.00;;;;;;4996380;28;20061;-76
2023/06/18 11:16:16;;;;;;;2.78;2.67;;;22.20;84.10;;;;;;5007445;28;20042;-74
2023/06/18 11:18:41;;;;;;;2.33;2.22;;;22.20;84.20;;;;;;4995812;28;20030;-75
2023/06/18 11:21:10;;;;;;;2.50;2.30;;;22.20;84.50;;;;;;4998795;28;20048;-75
2023/06/18 11:23:36;;;;;;;2.35;2.15;;;22.20;84.00;;;;;;5012904;28;20119;-74
2023/06/18 11:26:01;;;;;;;2.20;2.10;;;22.20;83.70;;;;;;4985305;28;20453;-75
2023/06/18 11:28:27;;;;;;;2.38;2.28;;;22.20;83.40;;;;;;4997837;28;20050;-75
2023/06/18 11:31:00;;;;;;;2.47;2.38;;;22.20;83.30;;;;;;4979921;28;20097;-75
2023/06/18 11:33:27;;;;;;;2.80;1.73;;;22.20;83.00;;;;;;4996491;28;20083;-75
2023/06/18 11:35:53;;;;;;;2.10;1.88;;;22.20;83.30;;;;;;5002166;28;20085;-75
2023/06/18 11:38:19;;;;;;;2.53;2.42;;;22.30;83.20;;;;;;4991061;28;20073;-75
2023/06/18 11:40:52;;;;;;;1.95;1.85;;;22.30;83.00;;;;;;4999181;28;20125;-76
2023/06/18 11:43:18;;;;;;;1.92;1.83;;;22.30;83.00;;;;;;4996871;28;20164;-77
2023/06/18 11:45:53;;;;;;;1.90;1.80;;;22.30;83.20;;;;;;4992545;28;20050;-76
2023/06/18 11:48:21;;;;;;;2.45;1.90;;;22.40;82.60;;;;;;4996287;28;20507;-77
2023/06/18 11:50:53;;;;;;;2.42;1.80;;;22.30;82.80;;;;;;4998223;28;20042;-75
2023/06/18 11:53:22;;;;;;;2.67;2.22;;;22.30;83.00;;;;;;4996608;28;20050;-76
2023/06/18 11:55:47;;;;;;;2.00;1.90;;;22.30;83.00;;;;;;4990761;28;20045;-76
2023/06/18 11:58:14;;;;;;;2.10;1.92;;;22.30;82.80;;;;;;4997028;28;21818;-78
2023/06/18 12:00:40;;;;;;;2.10;2.00;;;22.30;83.00;;;;;;4981927;28;20739;-77
2023/06/18 12:03:06;;;;;;;1.60;1.60;;;22.30;82.90;;;;;;5010681;28;20042;-76
2023/06/18 12:05:38;;;;;;;2.25;2.15;;;22.40;82.70;;;;;;5001700;28;20129;-76
2023/06/18 12:08:13;;;;;;;2.60;2.00;;;22.40;82.20;;;;;;4997949;28;20069;-76
2023/06/18 12:10:40;;;;;;;3.05;2.03;;;22.40;82.30;;;;;;4993411;28;20042;-76
2023/06/18 12:13:34;;;;;;;2.15;1.90;;;22.40;83.00;;;;;;5014070;28;20347;-77
2023/06/18 12:16:09;;;;;;;2.70;2.00;;;22.40;82.90;;;;;;5004480;28;20440;-76
2023/06/18 12:18:36;;;;;;;2.17;2.00;;;22.40;82.60;;;;;;5014687;28;20046;-77
2023/06/18 12:21:01;;;;;;;2.60;2.40;;;22.40;82.70;;;;;;4996271;28;20183;-75
2023/06/18 12:23:27;;;;;;;1.83;1.73;;;22.40;83.00;;;;;;5004498;28;20515;-77
2023/06/18 12:25:53;;;;;;;2.65;2.35;;;22.40;82.60;;;;;;5000848;28;20556;-77
2023/06/18 12:28:25;;;;;;;2.95;2.22;;;22.40;83.60;;;;;;4987104;28;20478;-75
2023/06/18 12:30:53;;;;;;;4.30;2.03;;;22.40;84.20;;;;;;5005379;28;20176;-75
2023/06/18 12:33:19;;;;;;;1.90;1.70;;;22.40;83.60;;;;;;5003680;28;20099;-75
2023/06/18 12:35:46;;;;;;;1.70;1.60;;;22.40;83.20;;;;;;5003044;28;20041;-75
2023/06/18 12:38:11;;;;;;;2.78;1.85;;;22.40;83.20;;;;;;4986428;28;20054;-76
2023/06/18 12:40:48;;;;;;;1.92;1.83;;;22.50;82.40;;;;;;5005180;28;20501;-75
2023/06/18 12:43:15;;;;;;;2.40;1.90;;;22.50;82.20;;;;;;5001358;28;20076;-76
2023/06/18 12:45:41;;;;;;;1.92;1.83;;;22.50;82.50;;;;;;5003408;28;20286;-75